sensor_id;sensor_type;location;lat;lon;timestamp;pressure;altitude;pressure_sealevel;temperature;humidity
69198;BME280;56311;50.298;8.514;2023-08-30T00:00:00;97130.0;;;12.8;100.0
69198;BME280;56311;50.298;8.514;2023-08-30T00:02:00;97130.0;;;12.8;100.0
69198;BME280;56311;50.298;8.514;2023-08-30T00:04:00;97130.0;;;12.9;100.0
69198;BME280;56311;50.298;8.514;2023-08-30T00:06:02;97130.0;;;12.9;100.0
69198;BME280;56311;50.298;8.514;2023-08-30T00:08:00;97140.0;;;12.9;100.0
69198;BME280;56311;50.298;8.514;2023-08-30T00:10:00;97140.0;;;12.9;100.0
69198;BME280;56311;50.298;8.514;2023-08-30T00:12:00;97130.0;;;12.9;100.0
69198;BME280;56311;50.298;8.514;2023-08-30T00:14:03;97130.0;;;12.9;100.0
69198;BME280;56311;50.298;8.514;2023-08-30T00:16:00;97130.0;;;12.9;100.0
69198;BME280;56311;50.298;8.514;2023-08-30T00:18:00;97120.0;;;13.0;100.0
69198;BME280;56311;50.298;8.514;2023-08-30T00:20:01;97120.0;;;13.1;100.0
69198;BME280;56311;50.298;8.514;2023-08-30T00:22:00;97120.0;;;13.0;100.0
69198;BME280;56311;50.298;8.514;2023-08-30T00:24:00;97120.0;;;13.0;100.0
69198;BME280;56311;50.298;8.514;2023-08-30T00:26:00;97120.0;;;13.0;100.0
69198;BME280;56311;50.298;8.514;2023-08-30T00:28:00;97120.0;;;13.1;100.0
69198;BME280;56311;50.298;8.514;2023-08-30T00:30:00;97120.0;;;13.1;100.0
69198;BME280;56311;50.298;8.514;2023-08-30T00:32:00;97110.0;;;13.1;100.0
69198;BME280;56311;50.298;8.514;2023-08-30T00:34:00;97120.0;;;13.0;100.0
69198;BME280;56311;50.298;8.514;2023-08-30T00:36:00;97120.0;;;12.9;100.0
69198;BME280;56311;50.298;8.514;2023-08-30T00:38:00;97120.0;;;13.0;100.0
69198;BME280;56311;50.298;8.514;2023-08-30T00:40:00;97120.0;;;12.8;100.0
69198;BME280;56311;50.298;8.514;2023-08-30T00:42:00;97120.0;;;12.8;100.0
69198;BME280;56311;50.298;8.514;2023-08-30T00:44:00;97120.0;;;12.7;100.0
69198;BME280;56311;50.298;8.514;2023-08-30T00:46:00;97120.0;;;12.7;100.0
69198;BME280;56311;50.298;8.514;2023-08-30T00:48:00;97120.0;;;12.7;100.0
69198;BME280;56311;50.298;8.514;2023-08-30T00:50:00;97120.0;;;12.7;100.0
69198;BME280;56311;50.298;8.514;2023-08-30T00:52:02;97110.0;;;12.8;100.0
69198;BME280;56311;50.298;8.514;2023-08-30T00:54:01;97110.0;;;12.9;100.0
69198;BME280;56311;50.298;8.514;2023-08-30T00:56:00;97110.0;;;13.0;100.0
69198;BME280;56311;50.298;8.514;2023-08-30T00:58:00;97110.0;;;13.0;100.0
69198;BME280;56311;50.298;8.514;2023-08-30T01:00:02;97100.0;;;13.0;100.0
69198;BME280;56311;50.298;8.514;2023-08-30T01:02:01;97100.0;;;13.4;100.0
69198;BME280;56311;50.298;8.514;2023-08-30T01:04:00;97090.0;;;13.8;100.0
69198;BME280;56311;50.298;8.514;2023-08-30T01:06:01;97090.0;;;13.8;100.0
69198;BME280;56311;50.298;8.514;2023-08-30T01:08:00;97090.0;;;13.6;100.0
69198;BME280;56311;50.298;8.514;2023-08-30T01:10:00;97090.0;;;13.5;100.0
69198;BME280;56311;50.298;8.514;2023-08-30T01:12:05;97100.0;;;13.3;100.0
69198;BME280;56311;50.298;8.514;2023-08-30T01:14:04;97090.0;;;13.1;100.0
69198;BME280;56311;50.298;8.514;2023-08-30T01:16:00;97090.0;;;13.1;100.0
69198;BME280;56311;50.298;8.514;2023-08-30T01:18:01;97090.0;;;13.1;100.0
69198;BME280;56311;50.298;8.514;2023-08-30T01:20:03;97080.0;;;13.0;100.0
69198;BME280;56311;50.298;8.514;2023-08-30T01:22:05;97080.0;;;12.9;100.0
69198;BME280;56311;50.298;8.514;2023-08-30T01:24:03;97080.0;;;13.0;100.0
69198;BME280;56311;50.298;8.514;2023-08-30T01:26:05;97080.0;;;12.8;100.0
69198;BME280;56311;50.298;8.514;2023-08-30T01:28:01;97070.0;;;12.8;100.0
69198;BME280;56311;50.298;8.514;2023-08-30T01:30:01;97080.0;;;12.8;100.0
69198;BME280;56311;50.298;8.514;2023-08-30T01:32:01;97070.0;;;12.9;100.0
69198;BME280;56311;50.298;8.514;2023-08-30T01:34:01;97070.0;;;13.0;100.0
69198;BME280;56311;50.298;8.514;2023-08-30T01:36:00;97070.0;;;13.0;100.0
69198;BME280;56311;50.298;8.514;2023-08-30T01:38:02;97070.0;;;13.1;100.0
69198;BME280;56311;50.298;8.514;2023-08-30T01:40:01;97070.0;;;13.1;100.0
69198;BME280;56311;50.298;8.514;2023-08-30T01:42:01;97070.0;;;13.0;100.0
69198;BME280;56311;50.298;8.514;2023-08-30T01:44:00;97060.0;;;12.9;100.0
69198;BME280;56311;50.298;8.514;2023-08-30T01:46:01;97060.0;;;12.9;100.0
69198;BME280;56311;50.298;8.514;2023-08-30T01:48:00;97070.0;;;13.0;100.0
69198;BME280;56311;50.298;8.514;2023-08-30T01:50:00;97060.0;;;13.0;100.0
69198;BME280;56311;50.298;8.514;2023-08-30T01:52:00;97060.0;;;13.1;100.0
69198;BME280;56311;50.298;8.514;2023-08-30T01:54:02;97060.0;;;13.1;100.0
69198;BME280;56311;50.298;8.514;2023-08-30T01:56:00;97060.0;;;13.1;100.0
69198;BME280;56311;50.298;8.514;2023-08-30T01:58:00;97070.0;;;13.0;100.0
69198;BME280;56311;50.298;8.514;2023-08-30T02:00:00;97060.0;;;13.1;100.0
69198;BME280;56311;50.298;8.514;2023-08-30T02:02:00;97060.0;;;13.1;100.0
69198;BME280;56311;50.298;8.514;2023-08-30T02:04:00;97070.0;;;13.1;100.0
69198;BME280;56311;50.298;8.514;2023-08-30T02:06:04;97060.0;;;13.2;100.0
69198;BME280;56311;50.298;8.514;2023-08-30T02:08:05;97060.0;;;13.7;100.0
69198;BME280;56311;50.298;8.514;2023-08-30T02:10:02;97060.0;;;13.9;100.0
69198;BME280;56311;50.298;8.514;2023-08-30T02:12:03;97060.0;;;13.7;100.0
69198;BME280;56311;50.298;8.514;2023-08-30T02:14:01;97060.0;;;13.6;100.0
69198;BME280;56311;50.298;8.514;2023-08-30T02:16:00;97050.0;;;13.5;100.0
69198;BME280;56311;50.298;8.514;2023-08-30T02:18:01;97050.0;;;13.4;100.0
69198;BME280;56311;50.298;8.514;2023-08-30T02:20:01;97050.0;;;13.4;100.0
69198;BME280;56311;50.298;8.514;2023-08-30T02:22:00;97050.0;;;13.4;100.0
69198;BME280;56311;50.298;8.514;2023-08-30T02:24:00;97050.0;;;13.4;100.0
69198;BME280;56311;50.298;8.514;2023-08-30T02:26:02;97050.0;;;13.5;100.0
69198;BME280;56311;50.298;8.514;2023-08-30T02:28:00;97050.0;;;13.4;100.0
69198;BME280;56311;50.298;8.514;2023-08-30T02:30:00;97050.0;;;13.4;100.0
69198;BME280;56311;50.298;8.514;2023-08-30T02:32:00;97060.0;;;13.4;100.0
69198;BME280;56311;50.298;8.514;2023-08-30T02:34:00;97060.0;;;13.3;100.0
69198;BME280;56311;50.298;8.514;2023-08-30T02:36:00;97060.0;;;13.2;100.0
69198;BME280;56311;50.298;8.514;2023-08-30T02:38:00;97060.0;;;13.3;100.0
69198;BME280;56311;50.298;8.514;2023-08-30T02:40:00;97060.0;;;13.2;100.0
69198;BME280;56311;50.298;8.514;2023-08-30T02:42:00;97060.0;;;13.2;100.0
69198;BME280;56311;50.298;8.514;2023-08-30T02:44:00;97060.0;;;13.2;100.0
69198;BME280;56311;50.298;8.514;2023-08-30T02:46:00;97060.0;;;13.2;100.0
69198;BME280;56311;50.298;8.514;2023-08-30T02:48:00;97050.0;;;13.2;100.0
69198;BME280;56311;50.298;8.514;2023-08-30T02:50:00;97050.0;;;13.2;100.0
69198;BME280;56311;50.298;8.514;2023-08-30T02:52:00;97050.0;;;13.1;100.0
69198;BME280;56311;50.298;8.514;2023-08-30T02:54:00;97050.0;;;13.1;100.0
69198;BME280;56311;50.298;8.514;2023-08-30T02:56:00;97040.0;;;13.1;100.0
69198;BME280;56311;50.298;8.514;2023-08-30T02:58:00;97040.0;;;13.1;100.0
69198;BME280;56311;50.298;8.514;2023-08-30T03:00:00;97040.0;;;13.1;100.0
69198;BME280;56311;50.298;8.514;2023-08-30T03:02:00;97040.0;;;13.1;100.0
69198;BME280;56311;50.298;8.514;2023-08-30T03:04:00;97040.0;;;13.1;100.0
69198;BME280;56311;50.298;8.514;2023-08-30T03:06:01;97040.0;;;13.1;100.0
69198;BME280;56311;50.298;8.514;2023-08-30T03:08:00;97040.0;;;13.1;100.0
69198;BME280;56311;50.298;8.514;2023-08-30T03:10:00;97040.0;;;13.1;100.0
69198;BME280;56311;50.298;8.514;2023-08-30T03:12:00;97030.0;;;13.1;100.0
69198;BME280;56311;50.298;8.514;2023-08-30T03:14:00;97040.0;;;13.1;100.0
69198;BME280;56311;50.298;8.514;2023-08-30T03:16:00;97030.0;;;13.1;100.0
69198;BME280;56311;50.298;8.514;2023-08-30T03:18:00;97030.0;;;13.1;100.0
69198;BME280;56311;50.298;8.514;2023-08-30T03:20:00;97030.0;;;13.1;100.0
69198;BME280;56311;50.298;8.514;2023-08-30T03:22:00;97030.0;;;13.2;100.0
69198;BME280;56311;50.298;8.514;2023-08-30T03:24:00;97040.0;;;13.2;100.0
69198;BME280;56311;50.298;8.514;2023-08-30T03:26:07;97030.0;;;13.2;100.0
69198;BME280;56311;50.298;8.514;2023-08-30T03:28:00;97030.0;;;13.2;100.0
69198;BME280;56311;50.298;8.514;2023-08-30T03:30:00;97030.0;;;13.2;100.0
69198;BME280;56311;50.298;8.514;2023-08-30T03:32:00;97030.0;;;13.2;100.0
69198;BME280;56311;50.298;8.514;2023-08-30T03:34:02;97030.0;;;13.3;100.0
69198;BME280;56311;50.298;8.514;2023-08-30T03:36:00;97030.0;;;13.3;100.0
69198;BME280;56311;50.298;8.514;2023-08-30T03:38:00;97030.0;;;13.3;100.0
69198;BME280;56311;50.298;8.514;2023-08-30T03:40:00;97030.0;;;13.3;100.0
69198;BME280;56311;50.298;8.514;2023-08-30T03:42:00;97030.0;;;13.3;100.0
69198;BME280;56311;50.298;8.514;2023-08-30T03:44:00;97030.0;;;13.4;100.0
69198;BME280;56311;50.298;8.514;2023-08-30T03:46:01;97040.0;;;13.5;100.0
69198;BME280;56311;50.298;8.514;2023-08-30T03:48:00;97040.0;;;13.4;100.0
69198;BME280;56311;50.298;8.514;2023-08-30T03:50:00;97030.0;;;13.5;100.0
69198;BME280;56311;50.298;8.514;2023-08-30T03:52:00;97030.0;;;13.4;100.0
69198;BME280;56311;50.298;8.514;2023-08-30T03:54:00;97030.0;;;13.4;100.0
69198;BME280;56311;50.298;8.514;2023-08-30T03:56:00;97030.0;;;13.5;100.0
69198;BME280;56311;50.298;8.514;2023-08-30T03:58:00;97030.0;;;13.4;100.0
69198;BME280;56311;50.298;8.514;2023-08-30T04:00:00;97030.0;;;13.4;100.0
69198;BME280;56311;50.298;8.514;2023-08-30T04:02:00;97030.0;;;13.4;100.0
69198;BME280;56311;50.298;8.514;2023-08-30T04:04:01;97030.0;;;13.2;100.0
69198;BME280;56311;50.298;8.514;2023-08-30T04:06:00;97030.0;;;13.2;100.0
69198;BME280;56311;50.298;8.514;2023-08-30T04:08:00;97030.0;;;13.2;100.0
69198;BME280;56311;50.298;8.514;2023-08-30T04:10:00;97020.0;;;13.2;100.0
69198;BME280;56311;50.298;8.514;2023-08-30T04:12:00;97030.0;;;13.3;100.0
69198;BME280;56311;50.298;8.514;2023-08-30T04:14:00;97030.0;;;13.3;100.0
69198;BME280;56311;50.298;8.514;2023-08-30T04:16:00;97030.0;;;13.2;100.0
69198;BME280;56311;50.298;8.514;2023-08-30T04:18:00;97030.0;;;13.3;100.0
69198;BME280;56311;50.298;8.514;2023-08-30T04:20:00;97020.0;;;13.2;100.0
69198;BME280;56311;50.298;8.514;2023-08-30T04:22:00;97030.0;;;13.2;100.0
69198;BME280;56311;50.298;8.514;2023-08-30T04:24:00;97020.0;;;13.2;100.0
69198;BME280;56311;50.298;8.514;2023-08-30T04:26:00;97020.0;;;13.3;100.0
69198;BME280;56311;50.298;8.514;2023-08-30T04:28:00;97020.0;;;13.3;100.0
69198;BME280;56311;50.298;8.514;2023-08-30T04:30:01;97020.0;;;13.2;100.0
69198;BME280;56311;50.298;8.514;2023-08-30T04:32:00;97030.0;;;13.1;100.0
69198;BME280;56311;50.298;8.514;2023-08-30T04:34:00;97020.0;;;13.1;100.0
69198;BME280;56311;50.298;8.514;2023-08-30T04:36:00;97020.0;;;13.1;100.0
69198;BME280;56311;50.298;8.514;2023-08-30T04:38:00;97020.0;;;13.1;100.0
69198;BME280;56311;50.298;8.514;2023-08-30T04:40:00;97010.0;;;13.1;100.0
69198;BME280;56311;50.298;8.514;2023-08-30T04:42:00;97010.0;;;13.1;100.0
69198;BME280;56311;50.298;8.514;2023-08-30T04:44:00;97020.0;;;13.1;100.0
69198;BME280;56311;50.298;8.514;2023-08-30T04:46:00;97010.0;;;13.1;100.0
69198;BME280;56311;50.298;8.514;2023-08-30T04:48:00;97020.0;;;13.1;100.0
69198;BME280;56311;50.298;8.514;2023-08-30T04:50:00;97010.0;;;13.2;100.0
69198;BME280;56311;50.298;8.514;2023-08-30T04:52:00;97020.0;;;13.1;100.0
69198;BME280;56311;50.298;8.514;2023-08-30T04:54:00;97020.0;;;13.1;100.0
69198;BME280;56311;50.298;8.514;2023-08-30T04:56:00;97020.0;;;13.1;100.0
69198;BME280;56311;50.298;8.514;2023-08-30T04:58:01;97020.0;;;12.9;100.0
69198;BME280;56311;50.298;8.514;2023-08-30T05:00:00;97020.0;;;12.9;100.0
69198;BME280;56311;50.298;8.514;2023-08-30T05:02:00;97020.0;;;13.0;100.0
69198;BME280;56311;50.298;8.514;2023-08-30T05:04:00;97020.0;;;13.0;100.0
69198;BME280;56311;50.298;8.514;2023-08-30T05:06:00;97020.0;;;13.1;100.0
69198;BME280;56311;50.298;8.514;2023-08-30T05:08:00;97020.0;;;13.2;100.0
69198;BME280;56311;50.298;8.514;2023-08-30T05:10:01;97020.0;;;13.1;100.0
69198;BME280;56311;50.298;8.514;2023-08-30T05:12:00;97020.0;;;13.0;100.0
69198;BME280;56311;50.298;8.514;2023-08-30T05:14:00;97020.0;;;13.2;100.0
69198;BME280;56311;50.298;8.514;2023-08-30T05:16:00;97020.0;;;13.3;100.0
69198;BME280;56311;50.298;8.514;2023-08-30T05:18:00;97020.0;;;13.2;100.0
69198;BME280;56311;50.298;8.514;2023-08-30T05:20:00;97010.0;;;13.2;100.0
69198;BME280;56311;50.298;8.514;2023-08-30T05:22:00;97020.0;;;13.3;100.0
69198;BME280;56311;50.298;8.514;2023-08-30T05:24:00;97020.0;;;13.3;100.0
69198;BME280;56311;50.298;8.514;2023-08-30T05:26:00;97020.0;;;13.4;100.0
69198;BME280;56311;50.298;8.514;2023-08-30T05:28:00;97020.0;;;13.3;100.0
69198;BME280;56311;50.298;8.514;2023-08-30T05:30:00;97020.0;;;13.4;100.0
69198;BME280;56311;50.298;8.514;2023-08-30T05:32:00;97020.0;;;13.5;100.0
69198;BME280;56311;50.298;8.514;2023-08-30T05:34:01;97020.0;;;13.5;100.0
69198;BME280;56311;50.298;8.514;2023-08-30T05:36:00;97020.0;;;13.6;100.0
69198;BME280;56311;50.298;8.514;2023-08-30T05:38:00;97010.0;;;13.6;100.0
69198;BME280;56311;50.298;8.514;2023-08-30T05:40:00;97010.0;;;13.6;100.0
69198;BME280;56311;50.298;8.514;2023-08-30T05:42:00;97010.0;;;13.6;100.0
69198;BME280;56311;50.298;8.514;2023-08-30T05:44:00;97020.0;;;13.6;100.0
69198;BME280;56311;50.298;8.514;2023-08-30T05:46:00;97010.0;;;13.7;100.0
69198;BME280;56311;50.298;8.514;2023-08-30T05:48:00;97020.0;;;13.8;100.0
69198;BME280;56311;50.298;8.514;2023-08-30T05:50:00;97020.0;;;13.8;100.0
69198;BME280;56311;50.298;8.514;2023-08-30T05:52:00;97020.0;;;13.8;100.0
69198;BME280;56311;50.298;8.514;2023-08-30T05:54:00;97020.0;;;13.8;100.0
69198;BME280;56311;50.298;8.514;2023-08-30T05:56:00;97020.0;;;13.8;100.0
69198;BME280;56311;50.298;8.514;2023-08-30T05:58:00;97020.0;;;13.8;100.0
69198;BME280;56311;50.298;8.514;2023-08-30T06:00:00;97020.0;;;13.8;100.0
69198;BME280;56311;50.298;8.514;2023-08-30T06:02:00;97020.0;;;13.8;100.0
69198;BME280;56311;50.298;8.514;2023-08-30T06:04:00;97020.0;;;13.9;100.0
69198;BME280;56311;50.298;8.514;2023-08-30T06:06:00;97020.0;;;13.9;100.0
69198;BME280;56311;50.298;8.514;2023-08-30T06:08:00;97020.0;;;13.9;100.0
69198;BME280;56311;50.298;8.514;2023-08-30T06:10:00;97020.0;;;14.1;100.0
69198;BME280;56311;50.298;8.514;2023-08-30T06:12:00;97020.0;;;14.2;100.0
69198;BME280;56311;50.298;8.514;2023-08-30T06:14:00;97020.0;;;14.1;100.0
69198;BME280;56311;50.298;8.514;2023-08-30T06:16:00;97020.0;;;14.1;100.0
69198;BME280;56311;50.298;8.514;2023-08-30T06:18:00;97010.0;;;14.2;100.0
69198;BME280;56311;50.298;8.514;2023-08-30T06:20:00;97010.0;;;14.3;100.0
69198;BME280;56311;50.298;8.514;2023-08-30T06:22:00;97010.0;;;14.3;100.0
69198;BME280;56311;50.298;8.514;2023-08-30T06:24:00;97010.0;;;14.3;100.0
69198;BME280;56311;50.298;8.514;2023-08-30T06:26:00;97000.0;;;14.4;100.0
69198;BME280;56311;50.298;8.514;2023-08-30T06:28:00;97000.0;;;14.4;100.0
69198;BME280;56311;50.298;8.514;2023-08-30T06:30:00;97000.0;;;14.4;100.0
69198;BME280;56311;50.298;8.514;2023-08-30T06:32:00;97010.0;;;14.3;100.0
69198;BME280;56311;50.298;8.514;2023-08-30T06:34:00;97010.0;;;14.4;100.0
69198;BME280;56311;50.298;8.514;2023-08-30T06:36:00;97000.0;;;14.5;100.0
69198;BME280;56311;50.298;8.514;2023-08-30T06:38:00;97010.0;;;14.6;100.0
69198;BME280;56311;50.298;8.514;2023-08-30T06:40:00;97010.0;;;14.7;100.0
69198;BME280;56311;50.298;8.514;2023-08-30T06:42:00;97010.0;;;14.8;100.0
69198;BME280;56311;50.298;8.514;2023-08-30T06:44:00;97010.0;;;14.9;100.0
69198;BME280;56311;50.298;8.514;2023-08-30T06:46:00;97010.0;;;15.0;100.0
69198;BME280;56311;50.298;8.514;2023-08-30T06:48:00;97000.0;;;15.0;100.0
69198;BME280;56311;50.298;8.514;2023-08-30T06:50:01;97000.0;;;14.9;100.0
69198;BME280;56311;50.298;8.514;2023-08-30T06:52:00;97000.0;;;14.8;100.0
69198;BME280;56311;50.298;8.514;2023-08-30T06:54:00;97000.0;;;14.9;100.0
69198;BME280;56311;50.298;8.514;2023-08-30T06:56:01;97000.0;;;14.9;100.0
69198;BME280;56311;50.298;8.514;2023-08-30T06:58:00;97000.0;;;15.0;100.0
69198;BME280;56311;50.298;8.514;2023-08-30T07:00:00;97000.0;;;15.1;100.0
69198;BME280;56311;50.298;8.514;2023-08-30T07:02:00;96990.0;;;15.2;100.0
69198;BME280;56311;50.298;8.514;2023-08-30T07:04:00;96990.0;;;15.1;100.0
69198;BME280;56311;50.298;8.514;2023-08-30T07:06:00;96990.0;;;15.2;100.0
69198;BME280;56311;50.298;8.514;2023-08-30T07:08:00;96990.0;;;15.5;100.0
69198;BME280;56311;50.298;8.514;2023-08-30T07:10:02;96990.0;;;15.4;100.0
69198;BME280;56311;50.298;8.514;2023-08-30T07:12:00;96990.0;;;15.3;100.0
69198;BME280;56311;50.298;8.514;2023-08-30T07:14:00;96990.0;;;15.5;100.0
69198;BME280;56311;50.298;8.514;2023-08-30T07:16:00;96990.0;;;15.6;100.0
69198;BME280;56311;50.298;8.514;2023-08-30T07:18:00;96990.0;;;15.5;100.0
69198;BME280;56311;50.298;8.514;2023-08-30T07:20:00;96990.0;;;15.7;99.3
69198;BME280;56311;50.298;8.514;2023-08-30T07:22:00;96990.0;;;15.8;99.4
69198;BME280;56311;50.298;8.514;2023-08-30T07:24:00;96980.0;;;15.8;99.8
69198;BME280;56311;50.298;8.514;2023-08-30T07:26:00;96980.0;;;16.0;98.9
69198;BME280;56311;50.298;8.514;2023-08-30T07:28:00;96990.0;;;16.0;97.7
69198;BME280;56311;50.298;8.514;2023-08-30T07:30:00;96990.0;;;16.2;96.9
69198;BME280;56311;50.298;8.514;2023-08-30T07:32:00;96990.0;;;16.2;97.4
69198;BME280;56311;50.298;8.514;2023-08-30T07:34:00;96990.0;;;16.1;97.1
69198;BME280;56311;50.298;8.514;2023-08-30T07:36:00;96980.0;;;16.2;95.2
69198;BME280;56311;50.298;8.514;2023-08-30T07:38:00;96980.0;;;16.2;93.1
69198;BME280;56311;50.298;8.514;2023-08-30T07:40:00;96980.0;;;16.6;92.0
69198;BME280;56311;50.298;8.514;2023-08-30T07:42:00;96980.0;;;16.8;92.4
69198;BME280;56311;50.298;8.514;2023-08-30T07:44:00;96980.0;;;17.0;91.3
69198;BME280;56311;50.298;8.514;2023-08-30T07:46:01;96980.0;;;17.2;90.6
69198;BME280;56311;50.298;8.514;2023-08-30T07:48:00;96980.0;;;17.2;89.4
69198;BME280;56311;50.298;8.514;2023-08-30T07:50:00;96980.0;;;17.4;89.3
69198;BME280;56311;50.298;8.514;2023-08-30T07:52:00;96980.0;;;17.4;89.6
69198;BME280;56311;50.298;8.514;2023-08-30T07:54:00;96980.0;;;17.3;89.6
69198;BME280;56311;50.298;8.514;2023-08-30T07:56:00;96980.0;;;17.3;90.7
69198;BME280;56311;50.298;8.514;2023-08-30T07:58:00;96980.0;;;17.5;90.5
69198;BME280;56311;50.298;8.514;2023-08-30T08:00:00;96980.0;;;17.5;89.9
69198;BME280;56311;50.298;8.514;2023-08-30T08:02:01;96980.0;;;17.7;89.7
69198;BME280;56311;50.298;8.514;2023-08-30T08:04:00;96970.0;;;17.8;88.9
69198;BME280;56311;50.298;8.514;2023-08-30T08:06:00;96980.0;;;17.9;88.2
69198;BME280;56311;50.298;8.514;2023-08-30T08:08:00;96980.0;;;18.2;88.1
69198;BME280;56311;50.298;8.514;2023-08-30T08:10:00;96980.0;;;18.4;87.4
69198;BME280;56311;50.298;8.514;2023-08-30T08:12:00;96990.0;;;18.4;86.4
69198;BME280;56311;50.298;8.514;2023-08-30T08:14:00;96980.0;;;18.6;85.7
69198;BME280;56311;50.298;8.514;2023-08-30T08:16:00;96990.0;;;18.7;85.8
69198;BME280;56311;50.298;8.514;2023-08-30T08:18:00;96980.0;;;18.6;85.8
69198;BME280;56311;50.298;8.514;2023-08-30T08:20:00;96990.0;;;18.5;86.4
69198;BME280;56311;50.298;8.514;2023-08-30T08:22:00;96980.0;;;18.0;86.5
69198;BME280;56311;50.298;8.514;2023-08-30T08:24:00;96990.0;;;17.9;88.1
69198;BME280;56311;50.298;8.514;2023-08-30T08:26:00;96990.0;;;18.1;87.3
69198;BME280;56311;50.298;8.514;2023-08-30T08:28:00;96990.0;;;18.2;87.5
69198;BME280;56311;50.298;8.514;2023-08-30T08:30:00;96990.0;;;18.3;87.2
69198;BME280;56311;50.298;8.514;2023-08-30T08:32:00;96990.0;;;18.4;87.2
69198;BME280;56311;50.298;8.514;2023-08-30T08:34:07;96990.0;;;18.5;86.2
69198;BME280;56311;50.298;8.514;2023-08-30T08:36:00;96990.0;;;18.7;84.9
69198;BME280;56311;50.298;8.514;2023-08-30T08:38:00;96980.0;;;18.7;79.2
69198;BME280;56311;50.298;8.514;2023-08-30T08:40:00;96980.0;;;18.6;75.3
69198;BME280;56311;50.298;8.514;2023-08-30T08:42:01;96980.0;;;18.6;75.3
69198;BME280;56311;50.298;8.514;2023-08-30T08:44:00;96980.0;;;18.8;75.5
69198;BME280;56311;50.298;8.514;2023-08-30T08:46:00;96980.0;;;18.8;74.2
69198;BME280;56311;50.298;8.514;2023-08-30T08:48:01;96980.0;;;18.8;73.6
69198;BME280;56311;50.298;8.514;2023-08-30T08:50:00;96990.0;;;19.0;72.9
69198;BME280;56311;50.298;8.514;2023-08-30T08:52:00;96990.0;;;19.1;70.1
69198;BME280;56311;50.298;8.514;2023-08-30T08:54:03;96990.0;;;19.3;69.1
69198;BME280;56311;50.298;8.514;2023-08-30T08:56:00;96990.0;;;19.2;70.6
69198;BME280;56311;50.298;8.514;2023-08-30T08:58:02;96980.0;;;19.2;70.1
69198;BME280;56311;50.298;8.514;2023-08-30T09:00:00;96980.0;;;19.1;69.6
69198;BME280;56311;50.298;8.514;2023-08-30T09:02:01;96980.0;;;19.2;69.2
69198;BME280;56311;50.298;8.514;2023-08-30T09:04:03;96990.0;;;19.2;67.1
69198;BME280;56311;50.298;8.514;2023-08-30T09:06:02;96990.0;;;19.2;68.3
69198;BME280;56311;50.298;8.514;2023-08-30T09:08:02;96980.0;;;19.0;67.5
69198;BME280;56311;50.298;8.514;2023-08-30T09:10:00;96980.0;;;19.0;67.0
69198;BME280;56311;50.298;8.514;2023-08-30T09:12:00;96980.0;;;19.1;67.7
69198;BME280;56311;50.298;8.514;2023-08-30T09:14:00;96970.0;;;19.2;66.9
69198;BME280;56311;50.298;8.514;2023-08-30T09:16:00;96970.0;;;19.4;66.7
69198;BME280;56311;50.298;8.514;2023-08-30T09:18:01;96970.0;;;19.5;66.8
69198;BME280;56311;50.298;8.514;2023-08-30T09:20:05;96970.0;;;19.6;65.0
69198;BME280;56311;50.298;8.514;2023-08-30T09:22:00;96970.0;;;19.5;60.4
69198;BME280;56311;50.298;8.514;2023-08-30T09:24:01;96970.0;;;19.4;63.1
69198;BME280;56311;50.298;8.514;2023-08-30T09:26:00;96970.0;;;19.3;60.6
69198;BME280;56311;50.298;8.514;2023-08-30T09:28:00;96970.0;;;19.3;61.3
69198;BME280;56311;50.298;8.514;2023-08-30T09:30:00;96960.0;;;19.6;62.0
69198;BME280;56311;50.298;8.514;2023-08-30T09:32:00;96950.0;;;19.5;62.1
69198;BME280;56311;50.298;8.514;2023-08-30T09:34:00;96950.0;;;19.6;60.9
69198;BME280;56311;50.298;8.514;2023-08-30T09:36:00;96950.0;;;19.8;62.6
69198;BME280;56311;50.298;8.514;2023-08-30T09:38:00;96950.0;;;19.9;63.1
69198;BME280;56311;50.298;8.514;2023-08-30T09:40:00;96950.0;;;20.1;61.5
69198;BME280;56311;50.298;8.514;2023-08-30T09:42:00;96950.0;;;20.1;62.2
69198;BME280;56311;50.298;8.514;2023-08-30T09:44:05;96950.0;;;19.9;60.4
69198;BME280;56311;50.298;8.514;2023-08-30T09:46:03;96950.0;;;19.8;59.7
69198;BME280;56311;50.298;8.514;2023-08-30T09:48:01;96950.0;;;19.8;61.5
69198;BME280;56311;50.298;8.514;2023-08-30T09:50:01;96950.0;;;19.9;63.1
69198;BME280;56311;50.298;8.514;2023-08-30T09:52:02;96950.0;;;19.6;61.8
69198;BME280;56311;50.298;8.514;2023-08-30T09:54:04;96940.0;;;19.9;62.3
69198;BME280;56311;50.298;8.514;2023-08-30T09:56:00;96940.0;;;19.9;60.7
69198;BME280;56311;50.298;8.514;2023-08-30T09:58:01;96940.0;;;19.9;60.7
69198;BME280;56311;50.298;8.514;2023-08-30T10:00:00;96940.0;;;19.9;61.2
69198;BME280;56311;50.298;8.514;2023-08-30T10:02:01;96940.0;;;19.9;59.7
69198;BME280;56311;50.298;8.514;2023-08-30T10:04:02;96940.0;;;20.1;59.1
69198;BME280;56311;50.298;8.514;2023-08-30T10:06:01;96930.0;;;20.1;61.0
69198;BME280;56311;50.298;8.514;2023-08-30T10:08:00;96930.0;;;20.1;62.7
69198;BME280;56311;50.298;8.514;2023-08-30T10:10:01;96940.0;;;20.1;59.5
69198;BME280;56311;50.298;8.514;2023-08-30T10:12:01;96930.0;;;20.1;59.9
69198;BME280;56311;50.298;8.514;2023-08-30T10:14:00;96930.0;;;20.3;59.2
69198;BME280;56311;50.298;8.514;2023-08-30T10:16:01;96930.0;;;20.7;61.1
69198;BME280;56311;50.298;8.514;2023-08-30T10:18:00;96920.0;;;20.8;60.3
69198;BME280;56311;50.298;8.514;2023-08-30T10:20:04;96920.0;;;21.0;60.9
69198;BME280;56311;50.298;8.514;2023-08-30T10:22:02;96920.0;;;21.0;61.1
69198;BME280;56311;50.298;8.514;2023-08-30T10:24:00;96920.0;;;21.0;61.1
69198;BME280;56311;50.298;8.514;2023-08-30T10:26:01;96910.0;;;21.1;60.9
69198;BME280;56311;50.298;8.514;2023-08-30T10:28:01;96920.0;;;21.1;58.1
69198;BME280;56311;50.298;8.514;2023-08-30T10:30:01;96920.0;;;21.4;58.2
69198;BME280;56311;50.298;8.514;2023-08-30T10:32:02;96920.0;;;21.4;58.0
69198;BME280;56311;50.298;8.514;2023-08-30T10:34:00;96920.0;;;21.4;57.8
69198;BME280;56311;50.298;8.514;2023-08-30T10:36:05;96910.0;;;21.4;57.8
69198;BME280;56311;50.298;8.514;2023-08-30T10:38:00;96910.0;;;21.2;56.4
69198;BME280;56311;50.298;8.514;2023-08-30T10:40:01;96920.0;;;21.2;57.5
69198;BME280;56311;50.298;8.514;2023-08-30T10:42:00;96920.0;;;21.2;57.9
69198;BME280;56311;50.298;8.514;2023-08-30T10:44:01;96920.0;;;21.3;56.7
69198;BME280;56311;50.298;8.514;2023-08-30T10:46:02;96920.0;;;20.9;56.4
69198;BME280;56311;50.298;8.514;2023-08-30T10:48:00;96920.0;;;21.1;55.9
69198;BME280;56311;50.298;8.514;2023-08-30T10:50:04;96930.0;;;21.0;55.1
69198;BME280;56311;50.298;8.514;2023-08-30T10:52:00;96910.0;;;20.9;56.2
69198;BME280;56311;50.298;8.514;2023-08-30T10:54:00;96910.0;;;21.2;58.9